Time;durP1;ratioP1;P1;durP2;ratioP2;P2;SDS_P1;SDS_P2;PMS_P1;PMS_P2;Temp;Humidity;BMP_temperature;BMP_pressure;BME280_temperature;BME280_humidity;BME280_pressure;Samples;Min_cycle;Max_cycle;Signal;HPM_P1;HPM_P2
2021/05/31 00:02:30;;;;;;;;;;;;;;;14.70;70.91;100054.13;4213735;33;34096;-96
2021/05/31 00:05:49;;;;;;;;;;;;;;;14.71;69.97;100047.63;4216730;34;34488;-96
2021/05/31 00:08:24;;;;;;;;;;;;;;;14.76;70.42;100047.88;4227407;33;34621;-96
2021/05/31 00:11:15;;;;;;;;;;;;;;;14.65;69.36;100043.03;3955343;34;33811;-96
2021/05/31 00:13:47;;;;;;;;;;;;;;;14.13;71.82;100042.62;4205959;34;34658;-89
2021/05/31 00:16:20;;;;;;;;;;;;;;;14.47;70.63;100046.31;4216925;34;33860;-89
2021/05/31 00:18:53;;;;;;;;;;;;;;;14.34;70.23;100043.53;4216593;34;33731;-96
2021/05/31 00:21:38;;;;;;;;;;;;;;;14.37;70.52;100048.56;4193540;34;35346;-89
2021/05/31 00:24:11;;;;;;;;;;;;;;;14.20;71.36;100048.94;4201793;34;34701;-89
2021/05/31 00:26:44;;;;;;;;;;;;;;;14.38;70.84;100047.53;4181594;34;33697;-96
2021/05/31 00:29:20;;;;;;;;;;;;;;;14.49;70.76;100046.94;4192494;34;34073;-96
2021/05/31 00:32:11;;;;;;;;;;;;;;;14.75;69.97;100039.91;4195992;34;33969;-89
2021/05/31 00:34:43;;;;;;;;;;;;;;;14.84;68.75;100052.25;4217202;34;33879;-89
2021/05/31 00:37:17;;;;;;;;;;;;;;;14.50;69.57;100042.34;4205437;34;34796;-89
2021/05/31 00:39:50;;;;;;;;;;;;;;;14.19;70.80;100036.41;4206548;34;33639;-89
2021/05/31 00:42:23;;;;;;;;;;;;;;;14.17;70.84;100033.03;4207095;34;33967;-89
2021/05/31 00:44:55;;;;;;;;;;;;;;;13.57;72.66;100036.31;4219304;34;35102;-96
2021/05/31 00:47:45;;;;;;;;;;;;;;;13.58;72.74;100029.84;4202456;34;33204;-89
2021/05/31 00:50:18;;;;;;;;;;;;;;;13.68;72.77;100025.94;4191864;34;34294;-90
2021/05/31 00:52:52;;;;;;;;;;;;;;;13.47;73.75;100022.25;4200953;34;32979;-92
2021/05/31 00:55:43;;;;;;;;;;;;;;;14.04;72.27;100027.56;4197442;34;34653;-90
2021/05/31 00:58:17;;;;;;;;;;;;;;;14.07;72.18;100022.56;4226983;33;35657;-90
2021/05/31 01:00:49;;;;;;;;;;;;;;;14.38;70.78;100013.00;4214401;34;34043;-89
2021/05/31 01:03:23;;;;;;;;;;;;;;;14.09;71.49;100014.22;4213975;34;34677;-89
2021/05/31 01:05:57;;;;;;;;;;;;;;;13.77;72.32;100008.41;4225594;33;33910;-89
2021/05/31 01:08:45;;;;;;;;;;;;;;;13.71;71.91;100014.66;4227323;33;34020;-89
2021/05/31 01:11:36;;;;;;;;;;;;;;;13.75;73.13;100007.78;4216778;34;34393;-96
2021/05/31 01:14:32;;;;;;;;;;;;;;;13.72;73.92;100010.91;4182000;34;34524;-96
2021/05/31 01:17:15;;;;;;;;;;;;;;;13.79;73.31;100003.63;4202129;34;33972;-96
2021/05/31 01:20:10;;;;;;;;;;;;;;;13.94;73.12;100011.66;4191829;34;35200;-96
2021/05/31 01:22:45;;;;;;;;;;;;;;;14.13;72.60;100008.16;4207359;34;34013;-96
2021/05/31 01:26:21;;;;;;;;;;;;;;;14.11;71.53;100003.97;3593561;34;35993;-92
2021/05/31 01:28:54;;;;;;;;;;;;;;;14.15;70.04;100007.94;4203758;34;33915;-90
2021/05/31 01:31:27;;;;;;;;;;;;;;;14.25;70.43;99996.66;4203583;34;33941;-89
2021/05/31 01:34:00;;;;;;;;;;;;;;;14.22;70.12;99997.09;4204563;34;34689;-96
2021/05/31 01:37:16;;;;;;;;;;;;;;;14.02;70.03;99988.88;4072171;34;34580;-96
2021/05/31 01:39:53;;;;;;;;;;;;;;;13.64;71.41;99979.34;4200048;34;34235;-88
2021/05/31 01:42:26;;;;;;;;;;;;;;;13.39;71.77;99987.13;4200065;34;34222;-88
2021/05/31 01:44:59;;;;;;;;;;;;;;;13.34;72.54;99981.47;4200714;34;34768;-95
2021/05/31 01:47:48;;;;;;;;;;;;;;;13.34;72.86;99986.91;4224462;33;32338;-89
2021/05/31 01:50:21;;;;;;;;;;;;;;;13.59;71.11;99976.38;4228120;33;34158;-96
2021/05/31 01:53:15;;;;;;;;;;;;;;;13.40;71.67;99977.97;4212706;34;33900;-89
2021/05/31 01:55:53;;;;;;;;;;;;;;;13.31;71.95;99981.81;4227851;33;33912;-95
2021/05/31 01:59:01;;;;;;;;;;;;;;;13.38;72.38;99985.44;4227378;28;34871;-96
2021/05/31 02:01:52;;;;;;;;;;;;;;;13.49;72.21;99984.91;4213452;33;32283;-89
2021/05/31 02:04:30;;;;;;;;;;;;;;;13.10;73.50;99983.59;4216310;34;34007;-96
2021/05/31 02:07:03;;;;;;;;;;;;;;;13.27;73.15;99983.28;4216128;34;34226;-96
2021/05/31 02:09:51;;;;;;;;;;;;;;;13.41;72.51;99988.63;4207523;34;33527;-95
2021/05/31 02:12:24;;;;;;;;;;;;;;;13.67;72.38;99983.53;4221163;33;32536;-90
2021/05/31 02:15:14;;;;;;;;;;;;;;;13.75;71.63;99986.06;4192990;34;34600;-96
2021/05/31 02:17:54;;;;;;;;;;;;;;;13.33;72.39;99977.03;4196905;34;34524;-89
2021/05/31 02:20:27;;;;;;;;;;;;;;;13.48;72.40;99985.09;4206689;34;33273;-95
2021/05/31 02:23:01;;;;;;;;;;;;;;;13.47;72.35;99980.69;4225031;33;34383;-96
2021/05/31 02:25:50;;;;;;;;;;;;;;;13.59;71.07;99977.22;4201564;34;32555;-96
2021/05/31 02:28:23;;;;;;;;;;;;;;;13.57;70.25;99973.84;4227541;33;34159;-89
2021/05/31 02:30:56;;;;;;;;;;;;;;;13.18;71.25;99969.84;4205625;34;33150;-89
2021/05/31 02:33:24;;;;;;;;;;;;;;;13.39;69.34;99965.41;4217091;33;34087;-89
2021/05/31 02:35:57;;;;;;;;;;;;;;;12.90;71.26;99972.56;4215743;34;34292;-89
2021/05/31 02:38:30;;;;;;;;;;;;;;;13.02;71.60;99981.00;4213908;34;34765;-88
2021/05/31 02:41:03;;;;;;;;;;;;;;;13.21;71.83;99980.31;4216040;34;33752;-89
2021/05/31 02:43:36;;;;;;;;;;;;;;;13.43;72.06;99980.28;4215742;34;33973;-89
2021/05/31 02:46:08;;;;;;;;;;;;;;;13.53;71.27;99972.59;4216299;34;34006;-89
2021/05/31 02:48:41;;;;;;;;;;;;;;;13.38;69.97;99970.03;4205557;34;33754;-88
2021/05/31 02:51:15;;;;;;;;;;;;;;;13.13;70.94;99971.47;4215232;34;33010;-95
2021/05/31 02:53:49;;;;;;;;;;;;;;;13.50;70.06;99974.88;4214262;34;34694;-96
2021/05/31 02:56:46;;;;;;;;;;;;;;;13.52;70.99;99979.06;3671137;28;36143;-89
2021/05/31 02:59:18;;;;;;;;;;;;;;;13.48;70.57;99982.38;4221250;33;34677;-96
2021/05/31 03:05:06;;;;;;;;;;;;;;;13.81;70.42;99971.66;4216017;34;34050;-89
2021/05/31 03:07:39;;;;;;;;;;;;;;;13.71;68.53;99971.19;4215523;34;35184;-89
2021/05/31 03:10:12;;;;;;;;;;;;;;;12.98;70.41;99968.88;4205727;34;34630;-95
2021/05/31 03:13:30;;;;;;;;;;;;;;;12.60;71.51;99967.31;4161181;33;34039;-88
2021/05/31 03:16:04;;;;;;;;;;;;;;;12.45;71.95;99967.38;4207576;34;33982;-89
2021/05/31 03:18:37;;;;;;;;;;;;;;;12.54;71.81;99962.69;4227710;33;34100;-94
2021/05/31 03:21:10;;;;;;;;;;;;;;;12.62;71.13;99967.12;4206484;34;34138;-88
2021/05/31 03:23:43;;;;;;;;;;;;;;;12.70;71.64;99967.00;4219323;34;33793;-89
2021/05/31 03:26:16;;;;;;;;;;;;;;;12.88;72.30;99969.22;4228156;33;34530;-89
2021/05/31 03:28:49;;;;;;;;;;;;;;;13.01;70.09;99966.62;4207363;34;33679;-96
2021/05/31 03:31:22;;;;;;;;;;;;;;;13.10;70.93;99959.16;4207994;33;34278;-95
2021/05/31 03:37:33;;;;;;;;;;;;;;;13.39;70.45;99968.13;3857336;28;35406;-89
2021/05/31 03:40:21;;;;;;;;;;;;;;;13.38;69.31;99963.72;4231694;33;34898;-89
2021/05/31 03:42:54;;;;;;;;;;;;;;;13.31;70.10;99971.81;4223452;33;34095;-95
2021/05/31 03:46:01;;;;;;;;;;;;;;;13.45;68.92;99969.22;3794091;33;35467;-88
2021/05/31 03:48:33;;;;;;;;;;;;;;;13.63;68.07;99965.97;4219114;34;34041;-96
2021/05/31 03:51:39;;;;;;;;;;;;;;;13.41;67.58;99972.34;4153212;34;35580;-95
2021/05/31 03:54:12;;;;;;;;;;;;;;;13.30;67.80;99977.44;4206055;34;34169;-95
2021/05/31 03:57:19;;;;;;;;;;;;;;;12.78;69.49;99964.13;3947370;34;34979;-96
2021/05/31 03:59:52;;;;;;;;;;;;;;;12.57;70.64;99967.72;4206235;34;34196;-95
2021/05/31 04:02:40;;;;;;;;;;;;;;;12.74;69.64;99962.00;4191764;34;34463;-89
2021/05/31 04:05:15;;;;;;;;;;;;;;;12.67;70.20;99967.38;4218166;34;33214;-89
2021/05/31 04:13:33;;;;;;;;;;;;;;;12.52;71.07;99959.34;4215257;33;34271;-95
2021/05/31 04:16:44;;;;;;;;;;;;;;;12.86;69.46;99966.72;4028018;34;35136;-88
2021/05/31 04:19:18;;;;;;;;;;;;;;;12.78;70.29;99964.13;4204604;34;32882;-89
2021/05/31 04:21:52;;;;;;;;;;;;;;;12.96;70.19;99968.25;4226469;33;34955;-96
2021/05/31 04:24:26;;;;;;;;;;;;;;;13.03;70.27;99967.25;4231973;33;34873;-96
2021/05/31 04:27:21;;;;;;;;;;;;;;;13.25;69.61;99965.31;4008639;34;35575;-96
2021/05/31 04:29:54;;;;;;;;;;;;;;;13.28;69.25;99964.06;4215858;33;33421;-88
2021/05/31 04:32:27;;;;;;;;;;;;;;;13.41;68.75;99968.75;4191638;34;34689;-89
2021/05/31 04:35:00;;;;;;;;;;;;;;;13.67;68.82;99962.63;4201522;34;34773;-95
2021/05/31 04:37:33;;;;;;;;;;;;;;;13.38;68.81;99964.59;4200404;34;35345;-95
2021/05/31 04:40:06;;;;;;;;;;;;;;;13.75;68.75;99961.63;4198643;34;33482;-87
2021/05/31 04:42:39;;;;;;;;;;;;;;;13.90;68.79;99961.47;4191306;34;33691;-88
2021/05/31 04:45:11;;;;;;;;;;;;;;;14.01;69.41;99963.59;4202002;34;34927;-96
2021/05/31 04:48:14;;;;;;;;;;;;;;;14.19;69.03;99952.16;4093734;34;36270;-96
2021/05/31 04:50:48;;;;;;;;;;;;;;;14.23;69.12;99955.28;4222646;33;33289;-96
2021/05/31 04:53:21;;;;;;;;;;;;;;;14.34;67.02;99953.81;4227348;33;34722;-96
2021/05/31 04:55:56;;;;;;;;;;;;;;;14.26;67.54;99954.87;4216962;34;34486;-88
2021/05/31 04:58:29;;;;;;;;;;;;;;;14.63;66.97;99950.75;4217734;34;34596;-96
2021/05/31 05:01:02;;;;;;;;;;;;;;;14.80;66.89;99944.88;4224078;33;33568;-95
2021/05/31 05:03:36;;;;;;;;;;;;;;;14.54;64.07;99941.09;4212991;34;34114;-88
2021/05/31 05:06:09;;;;;;;;;;;;;;;14.55;65.42;99942.78;4204416;34;33738;-96
2021/05/31 05:09:05;;;;;;;;;;;;;;;14.60;66.99;99940.25;4221009;33;20045;-96
2021/05/31 05:11:38;;;;;;;;;;;;;;;14.77;67.00;99939.87;4226202;33;33467;-87
2021/05/31 05:14:11;;;;;;;;;;;;;;;14.88;67.03;99952.84;4218480;34;34105;-95
2021/05/31 05:16:44;;;;;;;;;;;;;;;14.86;66.37;99944.03;4204688;34;34678;-93
2021/05/31 05:19:17;;;;;;;;;;;;;;;14.94;65.75;99940.25;4216502;34;34915;-88
2021/05/31 05:21:50;;;;;;;;;;;;;;;14.93;66.99;99949.50;4228884;33;31364;-88
2021/05/31 05:24:23;;;;;;;;;;;;;;;14.93;65.48;99946.78;4228153;33;33854;-92
2021/05/31 05:26:55;;;;;;;;;;;;;;;14.79;66.33;99949.50;4239965;33;34417;-88
2021/05/31 05:29:29;;;;;;;;;;;;;;;14.86;66.73;99949.47;4216868;34;33923;-87
2021/05/31 05:32:02;;;;;;;;;;;;;;;15.06;65.76;99944.03;4227081;33;32286;-88
2021/05/31 05:34:35;;;;;;;;;;;;;;;14.99;63.99;99954.09;4239640;33;34262;-87
2021/05/31 05:37:25;;;;;;;;;;;;;;;15.05;66.59;99955.13;4217348;34;34105;-92
2021/05/31 05:47:45;;;;;;;;;;;;;;;15.30;61.85;99961.56;4214521;34;33674;-87
2021/05/31 05:50:21;;;;;;;;;;;;;;;15.35;65.85;99961.75;4202253;34;34606;-93
2021/05/31 05:52:53;;;;;;;;;;;;;;;15.75;63.69;99960.78;4209977;34;33384;-92
2021/05/31 05:55:27;;;;;;;;;;;;;;;16.03;64.81;99960.47;4226325;33;34559;-92
2021/05/31 05:58:00;;;;;;;;;;;;;;;16.41;64.20;99964.25;4234297;33;33644;-92
2021/05/31 06:00:34;;;;;;;;;;;;;;;16.42;60.13;99964.03;4223835;33;34093;-88
2021/05/31 06:03:07;;;;;;;;;;;;;;;16.58;60.11;99962.63;4213496;34;32857;-89
2021/05/31 06:05:39;;;;;;;;;;;;;;;16.79;60.38;99962.47;4217655;34;34618;-88
2021/05/31 06:08:12;;;;;;;;;;;;;;;16.93;62.39;99961.31;4227446;33;34528;-94
2021/05/31 06:10:46;;;;;;;;;;;;;;;17.08;58.96;99961.81;4216164;34;34116;-94
2021/05/31 06:13:23;;;;;;;;;;;;;;;16.59;60.68;99958.03;4227341;33;33872;-94
2021/05/31 06:16:00;;;;;;;;;;;;;;;17.02;58.50;99965.47;4227261;33;34811;-89
2021/05/31 06:18:33;;;;;;;;;;;;;;;16.72;58.06;99963.37;4237506;33;34962;-89
2021/05/31 06:21:05;;;;;;;;;;;;;;;16.83;58.84;99961.81;4226282;33;33927;-88
2021/05/31 06:23:38;;;;;;;;;;;;;;;17.34;56.66;99959.88;4225378;33;33298;-89
2021/05/31 06:26:12;;;;;;;;;;;;;;;17.35;57.38;99961.56;4215406;34;34685;-94
2021/05/31 06:28:48;;;;;;;;;;;;;;;17.09;60.10;99962.66;4215230;34;34169;-94
2021/05/31 06:31:24;;;;;;;;;;;;;;;16.75;59.63;99962.06;4208242;34;32668;-88
2021/05/31 06:33:57;;;;;;;;;;;;;;;16.97;58.36;99957.09;4202352;34;32860;-88
2021/05/31 06:36:38;;;;;;;;;;;;;;;17.13;57.17;99963.87;4219611;33;34972;-94
2021/05/31 06:39:15;;;;;;;;;;;;;;;17.25;59.19;99963.97;4212584;34;33983;-88
2021/05/31 06:41:49;;;;;;;;;;;;;;;17.32;57.48;99963.87;4202144;34;34515;-93
2021/05/31 06:44:22;;;;;;;;;;;;;;;17.09;58.29;99960.75;4215873;34;33025;-88
2021/05/31 06:46:54;;;;;;;;;;;;;;;17.56;57.76;99964.88;4216529;34;33751;-92
2021/05/31 06:49:28;;;;;;;;;;;;;;;17.11;58.28;99960.53;4215709;34;34069;-93
2021/05/31 06:52:02;;;;;;;;;;;;;;;17.43;59.40;99961.25;4205876;33;35239;-88
2021/05/31 06:54:35;;;;;;;;;;;;;;;17.46;59.86;99962.69;4234272;33;33008;-92
2021/05/31 06:57:08;;;;;;;;;;;;;;;17.22;59.55;99967.16;4236875;33;34355;-94
2021/05/31 06:59:43;;;;;;;;;;;;;;;17.44;57.83;99960.19;4218759;33;34210;-89
2021/05/31 07:02:16;;;;;;;;;;;;;;;17.71;57.27;99964.50;4216746;33;33663;-89
2021/05/31 07:04:51;;;;;;;;;;;;;;;17.58;57.32;99962.78;4223326;33;32892;-88
2021/05/31 07:07:23;;;;;;;;;;;;;;;17.72;58.05;99964.25;4222079;33;33731;-87
2021/05/31 07:09:56;;;;;;;;;;;;;;;17.15;58.90;99950.00;4223457;33;34377;-94
2021/05/31 07:12:29;;;;;;;;;;;;;;;17.56;59.14;99956.69;4218588;33;34688;-89
2021/05/31 07:15:04;;;;;;;;;;;;;;;17.73;57.09;99957.75;4225025;33;34398;-94
2021/05/31 07:17:37;;;;;;;;;;;;;;;17.38;58.03;99966.56;4211449;34;34167;-90
2021/05/31 07:20:11;;;;;;;;;;;;;;;17.42;57.51;99958.75;4213320;33;34463;-89
2021/05/31 07:22:44;;;;;;;;;;;;;;;17.27;60.43;99970.03;4229446;33;34467;-90
2021/05/31 07:25:18;;;;;;;;;;;;;;;17.54;57.95;99970.56;4218330;33;33092;-88
2021/05/31 07:27:54;;;;;;;;;;;;;;;17.99;57.38;99972.16;4221181;33;34622;-93
2021/05/31 07:30:27;;;;;;;;;;;;;;;17.92;57.35;99968.66;4194933;34;34240;-92
2021/05/31 07:32:59;;;;;;;;;;;;;;;17.85;57.15;99970.66;4208610;34;32822;-91
2021/05/31 07:35:33;;;;;;;;;;;;;;;17.63;57.01;99971.97;4204199;34;33009;-88
2021/05/31 07:38:06;;;;;;;;;;;;;;;16.93;59.52;99980.44;4196872;33;33825;-88
2021/05/31 07:40:39;;;;;;;;;;;;;;;17.23;58.71;99977.84;4222802;33;34548;-88
2021/05/31 07:43:11;;;;;;;;;;;;;;;17.53;59.36;99981.72;4214225;33;34928;-88
2021/05/31 07:45:45;;;;;;;;;;;;;;;17.46;57.87;99979.91;4207721;34;33617;-88
2021/05/31 07:48:18;;;;;;;;;;;;;;;17.34;58.38;99980.91;4211112;33;35130;-96
2021/05/31 07:50:53;;;;;;;;;;;;;;;17.05;58.75;99973.19;4197578;34;35388;-96
2021/05/31 07:53:26;;;;;;;;;;;;;;;17.25;58.05;99966.69;4214988;33;34408;-96
2021/05/31 07:56:13;;;;;;;;;;;;;;;17.50;59.17;99974.00;4215996;33;32601;-96
2021/05/31 07:58:46;;;;;;;;;;;;;;;17.96;58.07;99967.16;4239883;33;34681;-96
2021/05/31 08:01:39;;;;;;;;;;;;;;;17.76;56.92;99959.19;4242455;33;34894;-96
2021/05/31 08:04:26;;;;;;;;;;;;;;;18.03;58.30;99978.03;4205558;34;32626;-96
2021/05/31 08:07:02;;;;;;;;;;;;;;;17.99;57.24;99977.63;4205546;34;34565;-96
2021/05/31 08:10:23;;;;;;;;;;;;;;;18.31;54.75;99969.22;4220569;33;33853;-96
2021/05/31 08:12:59;;;;;;;;;;;;;;;18.37;54.07;99972.91;4283236;28;34592;-96
2021/05/31 08:15:37;;;;;;;;;;;;;;;18.53;53.23;99966.75;4216591;33;36699;-96
2021/05/31 08:18:11;;;;;;;;;;;;;;;18.59;55.61;99965.81;4232944;33;32976;-96
2021/05/31 08:24:22;;;;;;;;;;;;;;;19.30;53.53;99956.84;4257886;28;35609;-93
2021/05/31 08:27:24;;;;;;;;;;;;;;;19.90;53.47;99947.44;4192408;34;34135;-96
2021/05/31 08:30:01;;;;;;;;;;;;;;;20.36;52.71;99951.06;4177488;34;33625;-96
2021/05/31 08:32:48;;;;;;;;;;;;;;;20.78;51.60;99947.94;4174888;34;33147;-96
2021/05/31 08:35:22;;;;;;;;;;;;;;;21.28;48.32;99950.88;4186017;34;34506;-96
2021/05/31 08:38:19;;;;;;;;;;;;;;;21.62;48.37;99948.91;4185403;34;33541;-96
2021/05/31 08:41:09;;;;;;;;;;;;;;;21.71;47.36;99943.78;4219557;28;31791;-96
2021/05/31 08:47:10;;;;;;;;;;;;;;;22.10;44.08;99940.09;4185388;34;34790;-88
2021/05/31 08:49:46;;;;;;;;;;;;;;;22.31;42.37;99936.47;4184661;34;32776;-89
2021/05/31 08:52:19;;;;;;;;;;;;;;;22.28;44.39;99939.72;4185569;34;34032;-89
2021/05/31 08:54:53;;;;;;;;;;;;;;;22.61;44.68;99937.84;4186550;34;34992;-88
2021/05/31 08:57:29;;;;;;;;;;;;;;;22.48;44.43;99941.03;4186555;34;34546;-87
2021/05/31 09:00:03;;;;;;;;;;;;;;;22.86;42.86;99928.12;4182906;34;34484;-88
2021/05/31 09:02:36;;;;;;;;;;;;;;;23.04;40.47;99926.84;4195574;34;33271;-89
2021/05/31 09:05:09;;;;;;;;;;;;;;;23.05;40.77;99932.13;4195631;34;33940;-90
2021/05/31 09:07:47;;;;;;;;;;;;;;;22.99;42.26;99930.41;4209697;33;34868;-89
2021/05/31 09:10:21;;;;;;;;;;;;;;;23.11;40.81;99933.00;4201758;34;34250;-89
2021/05/31 09:13:01;;;;;;;;;;;;;;;23.12;40.50;99928.34;4221974;33;33825;-96
2021/05/31 09:15:44;;;;;;;;;;;;;;;23.04;41.49;99926.84;4216646;33;33646;-89
2021/05/31 09:18:24;;;;;;;;;;;;;;;22.91;41.31;99922.66;4220437;33;33944;-89
2021/05/31 09:20:57;;;;;;;;;;;;;;;22.82;42.06;99932.50;4224581;33;34265;-96
2021/05/31 09:24:00;;;;;;;;;;;;;;;22.45;41.89;99930.56;4214951;33;33399;-88
2021/05/31 09:26:43;;;;;;;;;;;;;;;22.65;42.22;99927.13;4216270;33;33625;-88
2021/05/31 09:29:16;;;;;;;;;;;;;;;21.77;39.50;99925.44;4213702;34;32324;-88
2021/05/31 09:31:58;;;;;;;;;;;;;;;22.83;40.83;99920.38;4215501;34;33880;-88
2021/05/31 09:34:31;;;;;;;;;;;;;;;23.01;41.45;99928.25;4215540;34;33926;-88
2021/05/31 09:37:04;;;;;;;;;;;;;;;23.08;37.85;99917.81;4219313;33;33926;-88
2021/05/31 09:39:39;;;;;;;;;;;;;;;23.06;35.82;99920.00;4224818;33;34053;-87
2021/05/31 09:42:16;;;;;;;;;;;;;;;23.28;37.06;99910.78;4208953;34;34274;-88
2021/05/31 09:45:07;;;;;;;;;;;;;;;23.23;36.62;99910.75;4205292;33;33246;-88
2021/05/31 09:47:40;;;;;;;;;;;;;;;23.11;35.36;99905.44;4219714;33;33860;-88
2021/05/31 09:50:23;;;;;;;;;;;;;;;23.34;36.03;99904.19;4207445;33;34562;-87
2021/05/31 09:53:10;;;;;;;;;;;;;;;23.71;37.08;99906.00;4215957;33;33516;-93
2021/05/31 09:55:45;;;;;;;;;;;;;;;23.68;36.73;99905.72;4194485;34;33306;-89
2021/05/31 09:58:17;;;;;;;;;;;;;;;23.18;35.43;99903.28;4195894;34;33659;-87
2021/05/31 10:00:57;;;;;;;;;;;;;;;23.56;37.13;99895.75;4219845;33;34392;-88
2021/05/31 10:03:49;;;;;;;;;;;;;;;23.61;36.29;99892.19;4207862;34;33004;-89
2021/05/31 10:06:45;;;;;;;;;;;;;;;23.49;37.32;99881.38;4198817;34;32714;-88
2021/05/31 10:09:18;;;;;;;;;;;;;;;23.51;37.12;99881.09;4206726;34;34790;-89
2021/05/31 10:11:51;;;;;;;;;;;;;;;23.26;36.19;99880.72;4199376;34;34176;-89
2021/05/31 10:14:24;;;;;;;;;;;;;;;23.66;34.96;99878.41;4209997;33;34061;-90
2021/05/31 10:16:58;;;;;;;;;;;;;;;23.68;35.22;99873.41;4199376;34;33381;-90
2021/05/31 10:19:31;;;;;;;;;;;;;;;23.98;34.71;99874.62;4198685;34;34880;-90
2021/05/31 10:22:04;;;;;;;;;;;;;;;24.24;36.28;99875.50;4209964;33;33715;-95
2021/05/31 10:24:48;;;;;;;;;;;;;;;24.25;32.97;99873.56;4222265;33;33944;-90
2021/05/31 10:27:28;;;;;;;;;;;;;;;24.22;32.37;99865.81;4209548;34;33192;-96
2021/05/31 10:30:06;;;;;;;;;;;;;;;24.47;31.41;99860.31;4199959;33;33210;-90
2021/05/31 10:32:39;;;;;;;;;;;;;;;24.69;30.60;99867.50;4209104;33;34915;-90
2021/05/31 10:35:16;;;;;;;;;;;;;;;25.18;28.46;99858.53;4201667;34;33793;-89
2021/05/31 10:37:52;;;;;;;;;;;;;;;25.47;30.83;99855.13;4195061;34;33540;-87
2021/05/31 10:40:36;;;;;;;;;;;;;;;25.11;29.91;99844.19;4219131;33;34570;-92
2021/05/31 10:43:10;;;;;;;;;;;;;;;24.58;30.14;99852.00;4211154;34;33819;-89
2021/05/31 10:45:43;;;;;;;;;;;;;;;24.95;29.35;99845.34;4199889;34;35015;-90
2021/05/31 10:48:18;;;;;;;;;;;;;;;25.34;29.55;99847.44;4217368;33;32907;-90
2021/05/31 10:50:52;;;;;;;;;;;;;;;26.10;30.74;99844.56;4213810;34;33657;-89
2021/05/31 10:53:32;;;;;;;;;;;;;;;25.93;33.91;99844.91;4211653;33;35476;-88
2021/05/31 10:56:07;;;;;;;;;;;;;;;26.15;32.20;99845.31;4201010;34;33998;-95
2021/05/31 10:58:41;;;;;;;;;;;;;;;25.98;29.30;99842.94;4202575;34;33207;-90
2021/05/31 11:01:14;;;;;;;;;;;;;;;25.33;32.35;99854.09;4203385;34;33892;-90
2021/05/31 11:03:59;;;;;;;;;;;;;;;24.99;32.84;99850.03;4204802;34;34856;-89
2021/05/31 11:06:35;;;;;;;;;;;;;;;24.87;30.79;99834.88;4219592;28;33964;-95
2021/05/31 11:09:36;;;;;;;;;;;;;;;24.15;36.87;99847.59;4204823;33;34558;-94
2021/05/31 11:12:13;;;;;;;;;;;;;;;24.45;35.35;99839.63;4222531;28;34797;-93
2021/05/31 11:14:47;;;;;;;;;;;;;;;24.22;34.10;99829.94;4185198;34;34956;-95
2021/05/31 11:18:02;;;;;;;;;;;;;;;24.90;33.54;99824.06;3996723;28;36602;-96
2021/05/31 11:21:08;;;;;;;;;;;;;;;25.79;31.57;99823.41;4219818;33;34311;-87
2021/05/31 11:23:41;;;;;;;;;;;;;;;26.05;30.60;99814.97;4220095;33;34036;-88
2021/05/31 11:26:14;;;;;;;;;;;;;;;26.01;30.04;99813.88;4200648;34;34641;-88
2021/05/31 11:28:48;;;;;;;;;;;;;;;25.86;26.88;99812.84;4203249;33;34355;-88
2021/05/31 11:31:24;;;;;;;;;;;;;;;26.63;29.70;99807.78;4214035;33;33867;-88
2021/05/31 11:33:57;;;;;;;;;;;;;;;26.95;28.03;99798.88;4208927;34;33719;-87
2021/05/31 11:36:35;;;;;;;;;;;;;;;27.68;29.46;99796.00;4213234;34;33937;-95
2021/05/31 11:39:50;;;;;;;;;;;;;;;28.33;25.20;99793.28;4204025;34;34527;-88
2021/05/31 11:42:23;;;;;;;;;;;;;;;28.80;23.33;99789.69;4212844;34;33008;-96
2021/05/31 11:44:57;;;;;;;;;;;;;;;29.44;21.96;99783.38;4186763;34;34356;-93
2021/05/31 11:47:33;;;;;;;;;;;;;;;30.23;21.53;99782.88;4193887;34;34366;-95
2021/05/31 11:50:16;;;;;;;;;;;;;;;30.35;24.14;99782.31;4189213;33;34648;-94
2021/05/31 11:52:52;;;;;;;;;;;;;;;29.78;23.29;99785.66;4214530;33;32530;-95
2021/05/31 11:55:27;;;;;;;;;;;;;;;29.54;21.87;99781.19;4191903;34;33931;-95
2021/05/31 11:58:02;;;;;;;;;;;;;;;28.84;22.84;99771.25;4200807;34;34661;-94
2021/05/31 12:00:37;;;;;;;;;;;;;;;28.72;26.12;99770.97;4192109;34;34724;-93
2021/05/31 12:03:21;;;;;;;;;;;;;;;27.80;25.39;99780.53;4201797;34;33887;-94
2021/05/31 12:05:57;;;;;;;;;;;;;;;27.77;26.89;99774.75;4195876;33;34672;-96
2021/05/31 12:08:37;;;;;;;;;;;;;;;26.21;24.80;99774.13;4222220;33;33864;-94
2021/05/31 12:11:17;;;;;;;;;;;;;;;26.90;28.14;99780.37;4203286;34;33942;-94
2021/05/31 12:13:59;;;;;;;;;;;;;;;26.32;29.23;99780.37;4203170;34;35078;-95
2021/05/31 12:16:35;;;;;;;;;;;;;;;24.91;31.19;99794.50;4192653;34;33857;-96
2021/05/31 12:19:15;;;;;;;;;;;;;;;24.30;30.26;99787.97;4203796;33;33793;-94
2021/05/31 12:21:49;;;;;;;;;;;;;;;24.09;32.99;99790.75;4203614;34;34274;-94
2021/05/31 12:24:23;;;;;;;;;;;;;;;23.71;34.08;99795.66;4207732;33;33015;-95
2021/05/31 12:26:58;;;;;;;;;;;;;;;23.35;34.62;99798.31;4200858;34;32896;-92
2021/05/31 12:29:52;;;;;;;;;;;;;;;23.11;34.83;99792.44;4215441;33;35757;-94
2021/05/31 12:32:28;;;;;;;;;;;;;;;22.66;35.52;99794.66;4199888;33;34606;-94
2021/05/31 12:35:03;;;;;;;;;;;;;;;22.20;36.38;99795.16;4215056;33;32294;-94
2021/05/31 12:37:37;;;;;;;;;;;;;;;22.03;38.57;99797.22;4218709;33;34827;-94
2021/05/31 12:40:14;;;;;;;;;;;;;;;21.62;38.33;99819.66;4217391;33;35311;-94
2021/05/31 12:42:48;;;;;;;;;;;;;;;21.55;37.86;99829.19;4210847;33;35792;-95
2021/05/31 12:45:47;;;;;;;;;;;;;;;20.53;40.05;99838.50;4217956;33;36015;-96
2021/05/31 12:48:29;;;;;;;;;;;;;;;20.05;44.12;99856.37;4206904;34;34740;-95
2021/05/31 12:51:13;;;;;;;;;;;;;;;19.21;50.22;99872.28;4215331;33;33037;-95
2021/05/31 12:53:46;;;;;;;;;;;;;;;18.51;54.22;99887.63;4223702;33;34120;-93
2021/05/31 12:56:20;;;;;;;;;;;;;;;18.41;55.69;99892.84;4226516;33;34061;-93
2021/05/31 12:59:05;;;;;;;;;;;;;;;18.46;57.70;99895.72;4213205;33;33030;-95
2021/05/31 13:02:12;;;;;;;;;;;;;;;17.56;58.35;99900.16;4185327;33;36693;-92
2021/05/31 13:04:45;;;;;;;;;;;;;;;17.52;59.39;99907.13;4226365;33;33764;-92
2021/05/31 13:07:20;;;;;;;;;;;;;;;17.74;59.65;99910.22;4226045;33;32705;-93
2021/05/31 13:10:01;;;;;;;;;;;;;;;17.51;60.42;99905.44;4214726;34;34896;-95
2021/05/31 13:12:36;;;;;;;;;;;;;;;16.93;62.75;99901.25;4225323;33;35855;-93
2021/05/31 13:15:09;;;;;;;;;;;;;;;17.46;61.06;99897.94;4223885;33;33847;-93
2021/05/31 13:17:42;;;;;;;;;;;;;;;17.53;60.76;99892.41;4217476;33;33035;-88
2021/05/31 13:20:15;;;;;;;;;;;;;;;17.27;60.49;99899.84;4211276;34;33911;-89
2021/05/31 13:22:55;;;;;;;;;;;;;;;17.28;61.43;99912.44;4219737;33;34177;-87
2021/05/31 13:25:32;;;;;;;;;;;;;;;16.45;63.20;99921.81;4212668;34;32700;-86
2021/05/31 13:28:10;;;;;;;;;;;;;;;15.49;67.16;99924.44;4211009;34;32478;-87
2021/05/31 13:30:43;;;;;;;;;;;;;;;15.38;67.57;99913.38;4211954;34;34277;-87
2021/05/31 13:33:16;;;;;;;;;;;;;;;15.24;69.90;99918.84;4214100;34;34738;-87
2021/05/31 13:35:48;;;;;;;;;;;;;;;15.91;69.11;99913.16;4215198;34;34132;-88
2021/05/31 13:38:25;;;;;;;;;;;;;;;16.13;65.81;99904.63;4210929;33;33908;-88
2021/05/31 13:40:58;;;;;;;;;;;;;;;16.15;62.82;99895.19;4214947;33;33823;-88
2021/05/31 13:43:34;;;;;;;;;;;;;;;16.03;64.00;99895.06;4212010;34;34274;-87
2021/05/31 13:46:07;;;;;;;;;;;;;;;15.68;67.26;99898.12;4211240;34;33857;-88
2021/05/31 13:48:39;;;;;;;;;;;;;;;15.94;65.42;99885.44;4214480;34;32395;-88
2021/05/31 13:51:12;;;;;;;;;;;;;;;16.22;65.61;99886.94;4224080;33;35520;-88
2021/05/31 13:53:45;;;;;;;;;;;;;;;16.57;65.86;99878.25;4214600;34;33671;-88
2021/05/31 13:56:18;;;;;;;;;;;;;;;16.69;65.52;99873.78;4212964;33;33538;-88
2021/05/31 13:58:51;;;;;;;;;;;;;;;16.89;65.97;99870.87;4213792;34;34526;-88
2021/05/31 14:01:23;;;;;;;;;;;;;;;17.08;65.16;99863.53;4214351;33;33945;-88
2021/05/31 14:03:56;;;;;;;;;;;;;;;17.32;63.77;99852.75;4212623;34;34429;-88
2021/05/31 14:06:29;;;;;;;;;;;;;;;17.78;64.04;99832.16;4210700;34;34304;-87
2021/05/31 14:09:03;;;;;;;;;;;;;;;17.96;63.53;99841.37;4200937;34;33627;-88
2021/05/31 14:11:35;;;;;;;;;;;;;;;18.12;nan;99850.81;4210731;34;33918;-88